Flight Track Log - Related Links

Times and Time Zones

All times are in EDT time to prevent confusion due to time zone crossing. See the N600TR flight status page for this flight to view local times or setup timezone preferences in your user account.

Time Position Orientation Groundspeed Altitude Reporting Facility
EDT Latitude Longitude Course Direction KTS MPH feet Rate Location/Type
Mon 10:38:17 AM 42.2017 -83.3583 96° East 148 170 1,300  Level Cleveland Center
Mon 10:39:49 AM 42.1161 -83.3600 181° South 226 260 4,300 1,823 Climbing Cleveland Center
Mon 10:40:55 AM 42.0350 -83.3481 174° South 297 342 6,100 1,839 Climbing Cleveland Center
Mon 10:41:00 AM 42.2167 -82.6962 90° East  Level FlightAware Approximate
Mon 10:42:00 AM 42.2167 -82.5318 90° East  Level FlightAware Approximate
Mon 10:42:06 AM 42.0211 -83.2356 99° East 305 351 8,500  Level Cleveland Center
Mon 10:43:00 AM 42.2117 -82.3678 96° East  Level FlightAware Approximate
Mon 10:43:06 AM 42.0564 -83.1478 62° Northeast 282 325 9,000  Level Cleveland Center
Mon 10:44:06 AM 42.0919 -83.0456 65° Northeast 288 331 10,100 1,150 Climbing Cleveland Center
Mon 10:45:06 AM 42.1300 -82.9267 67° East 313 360 11,300 1,700 Climbing Cleveland Center
Mon 10:46:06 AM 42.1697 -82.8047 66° East 336 387 13,500 2,000 Climbing Cleveland Center
Mon 10:47:06 AM 42.2075 -82.6800 68° East 349 402 15,300 1,750 Climbing Cleveland Center
Mon 10:48:06 AM 42.2247 -82.5431 80° East 356 410 17,000 1,600 Climbing Cleveland Center
Mon 10:49:06 AM 42.2167 -82.4000 94° East 367 422 18,500 1,500 Climbing Cleveland Center
Mon 10:50:06 AM 42.2000 -82.2536 99° East 374 430 20,000 1,550 Climbing Cleveland Center
Mon 10:51:06 AM 42.1853 -82.1047 98° East 390 449 21,600 1,400 Climbing Cleveland Center
Mon 10:52:06 AM 42.1728 -81.9531 96° East 398 458 22,800 1,200 Climbing Cleveland Center
Mon 10:53:06 AM 42.1453 -81.8042 104° East 407 468 24,000 1,150 Climbing Cleveland Center
Mon 10:54:06 AM 42.0461 -81.7156 146° Southeast 390 449 25,100 1,100 Climbing Cleveland Center
Mon 10:55:06 AM 41.9281 -81.6269 151° Southeast 413 475 26,200 1,050 Climbing Cleveland Center
Mon 10:56:06 AM 41.8247 -81.5333 146° Southeast 441 507 27,200 950 Climbing Cleveland Center
Mon 10:57:06 AM 41.7275 -81.4233 140° Southeast 452 520 28,100 900 Climbing Cleveland Center
Mon 10:58:06 AM 41.6344 -81.3056 137° Southeast 457 526 29,000 450 Climbing Cleveland Center
Mon 10:59:06 AM 41.5414 -81.1797 135° Southeast 473 544 29,000  Level Cleveland Center
Mon 11:00:06 AM 41.4483 -81.0569 135° Southeast 473 544 29,000  Level Cleveland Center
Mon 11:01:06 AM 41.3633 -80.9483 136° Southeast 473 544 29,000  Level Cleveland Center
Mon 11:02:06 AM 41.2678 -80.8261 136° Southeast 478 550 29,000  Level Cleveland Center
Mon 11:03:06 AM 41.1678 -80.7128 140° Southeast 478 550 29,000  Level Cleveland Center
Mon 11:04:06 AM 41.0719 -80.5914 136° Southeast 473 544 29,000  Level Cleveland Center
Mon 11:05:06 AM 40.9822 -80.4622 133° Southeast 473 544 29,000  Level Cleveland Center
Mon 11:06:06 AM 40.8986 -80.3083 126° Southeast 473 544 29,000  Level Cleveland Center
Mon 11:07:06 AM 40.8128 -80.1797 131° Southeast 479 551 29,000  Level Cleveland Center
Mon 11:08:06 AM 40.7456 -80.0322 121° Southeast 468 539 29,000  Level Cleveland Center
Mon 11:09:06 AM 40.6986 -79.8628 110° East 468 539 29,000  Level Cleveland Center
Mon 11:10:06 AM 40.6558 -79.6964 109° East 473 544 29,000  Level Cleveland Center
Mon 11:11:06 AM 40.6042 -79.5275 112° Southeast 481 554 29,000  Level Cleveland Center
Mon 11:12:06 AM 40.5506 -79.3644 113° Southeast 481 554 29,000 -200 Level Cleveland Center
Mon 11:13:06 AM 40.5131 -79.1875 106° East 486 559 28,600 -800 Descending Cleveland Center
Mon 11:14:06 AM 40.4983 -79.0186 96° East 506 582 27,400 -800 Descending Cleveland Center
Mon 11:15:06 AM 40.4792 -78.8361 98° East 506 582 27,000 -500 Descending Cleveland Center
Mon 11:16:06 AM 40.4617 -78.6536 97° East 501 577 26,400 -700 Descending Cleveland Center
Mon 11:17:06 AM 40.4458 -78.4742 97° East 501 577 25,600 -400 Descending Cleveland Center
Mon 11:19:36 AM 40.4042 -78.0108 97° East 498 573 25,000 -200 Descending New York Center
Mon 11:20:36 AM 40.3883 -77.8264 96° East 503 579 24,900 -400 Descending New York Center
Mon 11:21:36 AM 40.3717 -77.6503 97° East 503 579 24,200 -650 Descending New York Center
Mon 11:22:36 AM 40.3528 -77.4714 98° East 498 573 23,600 -800 Descending New York Center
Mon 11:23:36 AM 40.3333 -77.2978 98° East 491 565 22,600 -1,300 Descending New York Center
Mon 11:24:36 AM 40.3039 -77.1481 104° East 478 550 21,000 -2,350 Descending New York Center
Mon 11:25:36 AM 40.2767 -76.9931 103° East 453 521 17,900 -2,050 Descending New York Center
Mon 11:26:36 AM 40.2481 -76.8219 102° East 439 505 16,900 -1,500 Descending New York Center
Mon 11:27:36 AM 40.2275 -76.6922 102° East 424 488 14,900 -1,600 Descending New York Center
Mon 11:28:36 AM 40.2014 -76.5461 103° East 418 481 13,700 -1,100 Descending New York Center
Mon 11:29:36 AM 40.1586 -76.3986 111° Southeast 408 470 12,700 -1,300 Descending New York Center
Mon 11:30:36 AM 40.1147 -76.2672 114° Southeast 396 456 11,100 -1,250 Descending New York Center
Mon 11:31:36 AM 40.0953 -76.1436 102° East 362 417 10,200 -850 Descending New York Center
Mon 11:32:36 AM 40.1042 -76.0386 84° East 338 389 9,400 -900 Descending New York Center
Mon 11:33:36 AM 40.0886 -75.9206 100° East 302 348 8,400 -1,350 Descending New York Center
Mon 11:34:36 AM 40.0744 -75.8164 100° East 290 334 6,700 -1,150 Descending New York Center
Mon 11:35:36 AM 40.0636 -75.7289 99° East 283 326 6,100 -350 Descending New York Center
Mon 11:36:36 AM 40.0514 -75.6169 98° East 282 325 6,000 -50 Descending New York Center
Mon 11:37:36 AM 40.0492 -75.5217 92° East 288 331 6,000  Level New York Center
Mon 11:38:36 AM 40.0475 -75.4078 91° East 293 337 6,000  Level New York Center
Mon 11:39:33 AM 40.0500 -75.3167 88° East 279 321 6,000  Level Philadelphia TRACON
Mon 11:40:39 AM 40.0500 -75.2000 90° East 276 318 6,000 50 Level Philadelphia TRACON
Mon 11:41:33 AM 39.9833 -75.1667 159° South 204 235 6,100  Climbing Philadelphia TRACON
Mon 11:42:33 AM 39.9833 -75.1000 90° East 235 270 6,000 -714 Descending Philadelphia TRACON
Mon 11:43:39 AM 39.9833 -75.0167 90° East 196 226 4,600 -1,053 Descending Philadelphia TRACON
Mon 11:44:27 AM 40.0000 -74.9500 72° East 201 231 4,000 -476 Descending Philadelphia TRACON
Mon 11:45:45 AM 40.0000 -74.8667 90° East 194 223 3,600 -500 Descending Philadelphia TRACON
Mon 11:46:39 AM 39.9500 -74.8667 180° South 189 217 2,900 -278 Descending Philadelphia TRACON
Mon 11:47:33 AM 39.9333 -74.9167 247° West 169 194 3,100 56 Climbing Philadelphia TRACON
Mon 11:48:27 AM 39.9333 -74.9667 270° West 177 204 3,000 -53 Descending Philadelphia TRACON
Mon 11:49:27 AM 39.9167 -75.0333 252° West 172 198 3,000 -500 Level Philadelphia TRACON
Mon 11:50:39 AM 39.9000 -75.1000 252° West 169 194 1,900 -864 Descending Philadelphia TRACON
Mon 11:51:39 AM 39.8833 -75.1500 247° West 154 177 1,100 -750 Descending Philadelphia TRACON
Mon 11:52:39 AM 39.8833 -75.2000 270° West 132 152 400 -700 Descending Philadelphia TRACON

Login

Don't have an account? Register now (free) for customized features, flight alerts, and more!